KLNN/LNN METAR and TAF weather

Enter ICAO airport designator
Station Type Date Time Source
KLNN METAR 2019/06/17 04:55 UTC NOAA

KLNN 170455Z AUTO 00000KT 5SM CLR 13/11 A2992 RMK AO1 T01260111 401850125


Station Type Date Time Source
KLNN Decoded METAR 2019/06/17 04:55 UTC NOAA

Willoughby, OH, United States (KLNN) 41-41N 081-23W
Jun 17, 2019 - 12:55 AM EDT / 2019.06.17 0455 UTC
Wind: Calm:0
Visibility: 5 mile(s):0
Sky conditions: clear
Temperature: 54.7 F (12.6 C)
Dew Point: 52.0 F (11.1 C)
Relative Humidity: 90%
Pressure (altimeter): 29.92 in. Hg (1013 hPa)
ob: KLNN 170455Z AUTO 00000KT 5SM CLR 13/11 A2992 RMK AO1 T01260111 401850125
cycle: 5

Station Type Date Time Source
KLNN TAF UTC NOAA

Error!

Example: see airport list